createdAt,value
2022-12-03T00:00:45.963Z,48.03
2022-12-03T00:03:12.918Z,50.10
2022-12-03T00:05:48.329Z,51.70
2022-12-03T00:08:16.011Z,60.43
2022-12-03T00:10:43.011Z,52.87
2022-12-03T00:13:10.183Z,59.37
2022-12-03T00:15:37.126Z,51.80
2022-12-03T00:18:04.111Z,54.17
2022-12-03T00:20:31.009Z,54.43
2022-12-03T00:22:57.931Z,50.47
2022-12-03T00:25:24.815Z,55.87
2022-12-03T00:27:51.706Z,46.77
2022-12-03T00:30:18.765Z,51.70
2022-12-03T00:32:45.649Z,49.83
2022-12-03T00:35:12.543Z,47.80
2022-12-03T00:37:39.451Z,50.00
2022-12-03T00:40:07.391Z,46.03
2022-12-03T00:42:34.368Z,47.67
2022-12-03T00:45:01.261Z,46.37
2022-12-03T00:47:28.113Z,48.07
2022-12-03T00:49:55.008Z,45.63
2022-12-03T00:52:21.949Z,53.77
2022-12-03T00:54:49.161Z,44.67
2022-12-03T00:57:16.290Z,48.23
2022-12-03T00:59:43.172Z,52.73
2022-12-03T01:02:10.421Z,50.70
2022-12-03T01:04:37.587Z,50.70
2022-12-03T01:07:05.088Z,44.93
2022-12-03T01:09:32.169Z,48.80
2022-12-03T01:11:59.292Z,59.37
2022-12-03T01:14:26.244Z,47.20
2022-12-03T01:16:53.152Z,49.97
2022-12-03T01:19:20.311Z,55.70
2022-12-03T01:21:50.354Z,44.07
2022-12-03T01:24:18.763Z,44.77
2022-12-03T01:26:45.765Z,55.90
2022-12-03T01:29:12.866Z,50.60
2022-12-03T01:31:58.112Z,49.00
2022-12-03T01:34:25.071Z,50.10
2022-12-03T01:36:52.604Z,54.50
2022-12-03T01:39:20.048Z,58.60
2022-12-03T01:41:49.124Z,48.83
2022-12-03T01:44:31.200Z,53.37
2022-12-03T01:47:01.998Z,44.27
2022-12-03T01:49:43.637Z,47.33
2022-12-03T01:52:18.153Z,51.77
2022-12-03T01:54:50.799Z,50.67
2022-12-03T01:57:43.887Z,55.07
2022-12-03T02:00:20.956Z,43.40
2022-12-03T02:02:52.936Z,57.90
2022-12-03T02:05:24.646Z,56.40
2022-12-03T02:07:53.753Z,56.93
2022-12-03T02:10:27.254Z,53.80
2022-12-03T02:13:06.557Z,48.87
2022-12-03T02:15:34.029Z,48.77
2022-12-03T02:18:01.326Z,53.13
2022-12-03T02:20:28.274Z,48.57
2022-12-03T02:23:13.243Z,47.90
2022-12-03T02:25:40.257Z,54.73
2022-12-03T02:28:09.166Z,52.77
2022-12-03T02:30:36.765Z,47.80
2022-12-03T02:33:04.167Z,51.33
2022-12-03T02:35:35.162Z,50.73
2022-12-03T02:38:20.187Z,47.07
2022-12-03T02:40:51.375Z,46.47
2022-12-03T02:43:20.049Z,49.97
2022-12-03T02:45:51.385Z,43.57
2022-12-03T02:48:24.354Z,42.77
2022-12-03T02:50:55.465Z,45.40
2022-12-03T02:53:36.556Z,44.00
2022-12-03T02:56:04.556Z,55.13
2022-12-03T02:58:33.071Z,43.20
2022-12-03T03:01:02.174Z,45.17
2022-12-03T03:03:30.542Z,45.63
2022-12-03T03:05:59.136Z,44.47
2022-12-03T03:08:26.829Z,48.70
2022-12-03T03:10:54.572Z,50.43
2022-12-03T03:13:21.850Z,48.60
2022-12-03T03:15:48.910Z,37.33
2022-12-03T03:18:16.743Z,38.63
2022-12-03T03:20:44.845Z,40.67
2022-12-03T03:23:11.639Z,43.90
2022-12-03T03:25:41.217Z,42.53
2022-12-03T03:28:08.197Z,33.27
2022-12-03T03:30:36.290Z,38.20
2022-12-03T03:33:03.443Z,44.23
2022-12-03T03:35:30.530Z,39.67
2022-12-03T03:37:58.728Z,45.07
2022-12-03T03:40:26.314Z,41.90
2022-12-03T03:42:56.076Z,40.63
2022-12-03T03:45:28.776Z,41.77
2022-12-03T03:47:58.251Z,41.53
2022-12-03T03:50:27.102Z,42.93
2022-12-03T03:52:54.710Z,46.40
2022-12-03T03:55:21.722Z,41.63
2022-12-03T03:57:49.076Z,41.47
2022-12-03T04:00:16.945Z,43.50
2022-12-03T04:02:44.004Z,46.07
2022-12-03T04:05:18.563Z,39.67
2022-12-03T04:07:45.584Z,37.33
2022-12-03T04:10:33.169Z,40.90
2022-12-03T04:13:00.979Z,44.73
2022-12-03T04:15:28.289Z,39.47
2022-12-03T04:18:14.157Z,42.57
2022-12-03T04:20:42.191Z,39.40
2022-12-03T04:23:09.193Z,38.90
2022-12-03T04:25:55.054Z,39.93
2022-12-03T04:28:40.475Z,40.40
2022-12-03T04:31:26.308Z,42.97
2022-12-03T04:34:12.307Z,47.87
2022-12-03T04:36:39.462Z,47.53
2022-12-03T04:39:06.370Z,35.63
2022-12-03T04:41:33.281Z,48.37
2022-12-03T04:44:18.885Z,53.73
2022-12-03T04:46:45.843Z,51.63
2022-12-03T04:49:13.084Z,39.33
2022-12-03T04:51:39.969Z,42.60
2022-12-03T04:54:06.887Z,41.93
2022-12-03T04:56:33.816Z,47.13
2022-12-03T04:59:00.801Z,45.00
2022-12-03T05:01:27.855Z,38.90
2022-12-03T05:03:54.769Z,44.60
2022-12-03T05:06:22.381Z,38.77
2022-12-03T05:08:49.252Z,42.10
2022-12-03T05:11:16.111Z,41.17
2022-12-03T05:13:43.267Z,44.27
2022-12-03T05:16:10.951Z,40.63
2022-12-03T05:18:38.076Z,48.90
2022-12-03T05:21:05.062Z,48.93
2022-12-03T05:23:32.384Z,47.97
2022-12-03T05:25:59.313Z,45.43
2022-12-03T05:28:26.283Z,45.47
2022-12-03T05:30:53.215Z,44.10
2022-12-03T05:33:20.621Z,45.23
2022-12-03T05:35:47.826Z,40.80
2022-12-03T05:38:14.759Z,46.03
2022-12-03T05:40:41.819Z,40.70
2022-12-03T05:43:08.715Z,51.93
2022-12-03T05:45:44.253Z,43.33
2022-12-03T05:48:15.002Z,42.10
2022-12-03T05:50:44.679Z,41.70
2022-12-03T05:53:15.732Z,35.80
2022-12-03T05:55:42.798Z,38.57
2022-12-03T05:58:09.947Z,34.13
2022-12-03T06:00:42.922Z,46.67
2022-12-03T06:03:11.011Z,56.63
2022-12-03T06:05:38.195Z,40.53
2022-12-03T06:08:05.174Z,44.57
2022-12-03T06:10:32.586Z,44.07
2022-12-03T06:12:59.644Z,38.07
2022-12-03T06:15:26.540Z,42.67
2022-12-03T06:17:53.486Z,41.10
2022-12-03T06:20:21.524Z,36.07
2022-12-03T06:22:48.846Z,35.07
2022-12-03T06:25:16.373Z,36.00
2022-12-03T06:27:43.557Z,43.77
2022-12-03T06:30:13.828Z,37.70
2022-12-03T06:32:41.059Z,42.20
2022-12-03T06:35:08.472Z,41.07
2022-12-03T06:37:35.387Z,42.60
2022-12-03T06:40:02.319Z,54.87
2022-12-03T06:42:29.189Z,66.80
2022-12-03T06:44:56.349Z,78.67
2022-12-03T06:47:23.544Z,73.03
2022-12-03T06:49:50.453Z,47.73
2022-12-03T06:52:17.364Z,38.33
2022-12-03T06:54:44.397Z,41.33
2022-12-03T06:57:11.319Z,41.83
2022-12-03T06:59:38.202Z,44.20
2022-12-03T07:02:05.674Z,51.23
2022-12-03T07:04:32.612Z,42.17
2022-12-03T07:06:59.514Z,40.00
2022-12-03T07:09:26.411Z,43.30
2022-12-03T07:11:53.310Z,42.70
2022-12-03T07:14:20.303Z,41.80
2022-12-03T07:16:47.632Z,44.53
2022-12-03T07:19:15.273Z,53.70
2022-12-03T07:21:42.467Z,45.20
2022-12-03T07:24:09.445Z,40.33
2022-12-03T07:26:36.366Z,47.87
2022-12-03T07:29:03.646Z,62.20
2022-12-03T07:31:30.586Z,42.20
2022-12-03T07:33:57.607Z,43.83
2022-12-03T07:36:24.488Z,42.23
2022-12-03T07:38:52.033Z,39.43
2022-12-03T07:41:19.023Z,39.93
2022-12-03T07:43:45.992Z,43.63
2022-12-03T07:46:12.995Z,42.97
2022-12-03T07:48:39.983Z,37.83
2022-12-03T07:51:06.974Z,38.60
2022-12-03T07:53:36.079Z,38.50
2022-12-03T07:56:05.005Z,43.87
2022-12-03T07:58:32.022Z,42.33
2022-12-03T08:00:59.013Z,39.17
2022-12-03T08:03:25.928Z,40.27
2022-12-03T08:05:52.829Z,39.17
2022-12-03T08:08:19.798Z,38.77
2022-12-03T08:10:46.754Z,41.43
2022-12-03T08:13:15.972Z,40.17
2022-12-03T08:15:43.941Z,44.63
2022-12-03T08:18:20.737Z,41.17
2022-12-03T08:21:02.788Z,40.77
2022-12-03T08:23:29.728Z,30.80
2022-12-03T08:26:02.018Z,39.77
2022-12-03T08:28:29.177Z,48.37
2022-12-03T08:31:26.853Z,40.10
2022-12-03T08:34:17.956Z,51.87
2022-12-03T08:36:46.340Z,51.97
2022-12-03T08:39:45.007Z,35.37
2022-12-03T08:42:41.939Z,37.53
2022-12-03T08:45:43.199Z,39.20
2022-12-03T08:48:34.717Z,37.20
2022-12-03T08:51:22.344Z,34.50
2022-12-03T08:53:56.696Z,41.40
2022-12-03T08:56:30.519Z,39.00
2022-12-03T08:59:31.782Z,39.23
2022-12-03T09:01:59.693Z,37.77
2022-12-03T09:04:46.750Z,53.70
2022-12-03T09:07:13.649Z,42.77
2022-12-03T09:09:40.578Z,42.87
2022-12-03T09:12:07.585Z,40.43
2022-12-03T09:14:34.524Z,42.37
2022-12-03T09:17:01.524Z,36.00
2022-12-03T09:19:31.217Z,35.53
2022-12-03T09:21:58.382Z,42.53
2022-12-03T09:24:25.356Z,51.27
2022-12-03T09:26:52.370Z,55.73
2022-12-03T09:29:19.453Z,41.43
2022-12-03T09:31:46.444Z,32.43
2022-12-03T09:34:13.401Z,39.10
2022-12-03T09:36:40.662Z,39.93
2022-12-03T09:39:07.644Z,35.80
2022-12-03T09:41:34.590Z,43.47
2022-12-03T09:44:04.859Z,39.60
2022-12-03T09:46:34.817Z,41.90
2022-12-03T09:49:03.100Z,39.50
2022-12-03T09:51:34.941Z,35.73
2022-12-03T09:54:07.102Z,35.03
2022-12-03T09:56:37.720Z,39.07
2022-12-03T09:59:14.255Z,38.03
2022-12-03T10:01:41.540Z,39.37
2022-12-03T10:04:08.904Z,37.87
2022-12-03T10:06:38.781Z,42.83
2022-12-03T10:09:11.783Z,42.90
2022-12-03T10:11:39.058Z,45.40
2022-12-03T10:14:06.481Z,43.20
2022-12-03T10:16:36.022Z,41.07
2022-12-03T10:19:03.035Z,48.40
2022-12-03T10:21:36.904Z,44.20
2022-12-03T10:24:32.950Z,42.70
2022-12-03T10:27:29.641Z,47.40
2022-12-03T10:30:01.686Z,57.10
2022-12-03T10:32:43.878Z,56.90
2022-12-03T10:35:23.729Z,47.80
2022-12-03T10:38:06.338Z,54.73
2022-12-03T10:40:39.408Z,54.07
2022-12-03T10:43:14.869Z,48.20
2022-12-03T10:45:43.006Z,46.83
2022-12-03T10:48:27.197Z,55.60
2022-12-03T10:51:07.092Z,50.00
2022-12-03T10:53:36.724Z,51.20
2022-12-03T10:56:07.389Z,51.17
2022-12-03T10:58:36.904Z,48.40
2022-12-03T11:01:17.093Z,48.50
2022-12-03T11:03:45.103Z,59.63
2022-12-03T11:06:20.156Z,52.27
2022-12-03T11:08:56.510Z,59.07
2022-12-03T11:11:30.857Z,51.17
2022-12-03T11:14:01.253Z,50.23
2022-12-03T11:16:40.304Z,49.73
2022-12-03T11:19:13.161Z,48.37
2022-12-03T11:22:26.414Z,54.57
2022-12-03T11:25:24.423Z,50.23
2022-12-03T11:28:13.132Z,53.20
2022-12-03T11:31:04.474Z,49.20
2022-12-03T11:33:38.509Z,59.90
2022-12-03T11:36:05.423Z,46.33
2022-12-03T11:38:38.286Z,50.43
2022-12-03T11:41:29.345Z,51.63
2022-12-03T11:44:01.904Z,54.07
2022-12-03T11:46:36.400Z,47.07
2022-12-03T11:49:22.335Z,49.53
2022-12-03T11:51:49.813Z,54.73
2022-12-03T11:54:19.408Z,47.77
2022-12-03T11:56:51.570Z,53.70
2022-12-03T11:59:19.281Z,42.53
2022-12-03T12:01:46.908Z,44.30
2022-12-03T12:04:43.086Z,57.13
2022-12-03T12:07:09.981Z,60.07
2022-12-03T12:09:54.698Z,59.37
2022-12-03T12:12:31.212Z,48.77
2022-12-03T12:14:59.193Z,56.67
2022-12-03T12:17:36.853Z,59.47
2022-12-03T12:20:27.112Z,55.63
2022-12-03T12:22:55.506Z,55.43
2022-12-03T12:25:41.358Z,44.60
2022-12-03T12:28:08.831Z,49.57
2022-12-03T12:30:36.898Z,48.37
2022-12-03T12:33:23.510Z,47.13
2022-12-03T12:35:51.344Z,55.87
2022-12-03T12:38:20.918Z,56.27
2022-12-03T12:40:50.507Z,58.40
2022-12-03T12:43:26.548Z,56.60
2022-12-03T12:45:56.943Z,65.30
2022-12-03T12:48:36.577Z,56.70
2022-12-03T12:51:16.901Z,59.47
2022-12-03T12:53:43.776Z,51.80
2022-12-03T12:56:19.509Z,57.70
2022-12-03T12:58:46.736Z,54.47
2022-12-03T13:01:29.531Z,59.83
2022-12-03T13:03:57.472Z,65.37
2022-12-03T13:06:28.173Z,66.27
2022-12-03T13:08:55.503Z,55.33
2022-12-03T13:11:25.319Z,52.40
2022-12-03T13:13:52.596Z,52.47
2022-12-03T13:16:28.849Z,51.60
2022-12-03T13:19:01.071Z,58.73
2022-12-03T13:21:44.249Z,53.47
2022-12-03T13:24:37.249Z,48.33
2022-12-03T13:27:23.122Z,51.77
2022-12-03T13:30:09.666Z,58.80
2022-12-03T13:32:37.911Z,60.63
2022-12-03T13:35:17.541Z,59.83
2022-12-03T13:37:44.895Z,58.73
2022-12-03T13:40:26.641Z,72.40
2022-12-03T13:42:54.354Z,64.90
2022-12-03T13:45:28.162Z,63.93
2022-12-03T13:48:01.459Z,59.23
2022-12-03T13:50:41.799Z,62.60
2022-12-03T13:53:11.577Z,56.83
2022-12-03T13:55:43.836Z,60.93
2022-12-03T13:58:10.722Z,54.53
2022-12-03T14:00:37.767Z,57.53
2022-12-03T14:03:05.105Z,59.43
2022-12-03T14:05:32.127Z,110.63
2022-12-03T14:08:02.028Z,118.57
2022-12-03T14:10:29.786Z,75.10
2022-12-03T14:12:57.386Z,69.00
2022-12-03T14:15:26.338Z,63.87
2022-12-03T14:17:53.336Z,67.13
2022-12-03T14:20:20.537Z,59.80
2022-12-03T14:22:47.455Z,59.83
2022-12-03T14:25:15.451Z,55.63
2022-12-03T14:27:42.476Z,60.57
2022-12-03T14:30:10.261Z,66.03
2022-12-03T14:32:37.160Z,55.37
2022-12-03T14:35:09.717Z,63.03
2022-12-03T14:37:37.171Z,57.23
2022-12-03T14:40:07.065Z,63.90
2022-12-03T14:42:33.941Z,78.93
2022-12-03T14:45:00.869Z,73.53
2022-12-03T14:47:28.023Z,77.37
2022-12-03T14:49:54.980Z,71.00
2022-12-03T14:52:21.997Z,66.03
2022-12-03T14:54:48.997Z,75.60
2022-12-03T14:57:16.551Z,73.03
2022-12-03T14:59:44.989Z,69.63
2022-12-03T15:02:12.787Z,77.57
2022-12-03T15:04:40.885Z,78.03
2022-12-03T15:07:08.338Z,87.20
2022-12-03T15:09:35.296Z,86.60
2022-12-03T15:12:03.662Z,76.17
2022-12-03T15:14:30.584Z,70.37
2022-12-03T15:16:57.788Z,84.33
2022-12-03T15:19:24.805Z,68.40
2022-12-03T15:21:51.689Z,80.93
2022-12-03T15:24:18.565Z,77.60
2022-12-03T15:26:45.477Z,74.90
2022-12-03T15:29:12.429Z,86.90
2022-12-03T15:31:39.425Z,86.30
2022-12-03T15:34:06.373Z,82.73
2022-12-03T15:36:33.262Z,83.13
2022-12-03T15:39:00.210Z,81.13
2022-12-03T15:41:29.874Z,91.60
2022-12-03T15:43:59.959Z,113.90
2022-12-03T15:46:27.997Z,107.40
2022-12-03T15:48:55.804Z,85.13
2022-12-03T15:51:23.433Z,85.77
2022-12-03T15:53:50.672Z,83.77
2022-12-03T15:56:17.562Z,78.17
2022-12-03T15:58:44.603Z,84.70
2022-12-03T16:01:13.704Z,76.77
2022-12-03T16:03:41.791Z,74.87
2022-12-03T16:06:09.113Z,72.13
2022-12-03T16:08:36.115Z,77.57
2022-12-03T16:11:03.988Z,75.63
2022-12-03T16:13:31.326Z,76.23
2022-12-03T16:15:58.315Z,85.37
2022-12-03T16:18:25.304Z,80.43
2022-12-03T16:20:52.392Z,76.43
2022-12-03T16:23:19.307Z,73.03
2022-12-03T16:25:46.253Z,79.60
2022-12-03T16:28:13.182Z,83.90
2022-12-03T16:30:40.165Z,86.27
2022-12-03T16:33:07.086Z,100.97
2022-12-03T16:35:34.017Z,86.73
2022-12-03T16:38:01.096Z,84.13
2022-12-03T16:40:27.996Z,85.60
2022-12-03T16:42:56.645Z,74.63
2022-12-03T16:45:29.265Z,77.10
2022-12-03T16:47:56.141Z,74.90
2022-12-03T16:50:29.495Z,76.50
2022-12-03T16:52:57.825Z,81.57
2022-12-03T16:55:25.072Z,73.17
2022-12-03T16:57:52.008Z,81.53
2022-12-03T17:00:21.745Z,70.63
2022-12-03T17:02:48.936Z,73.33
2022-12-03T17:05:15.943Z,80.10
2022-12-03T17:07:42.995Z,91.10
2022-12-03T17:10:10.592Z,79.10
2022-12-03T17:13:07.820Z,82.97
2022-12-03T17:15:24.455Z,83.87
2022-12-03T17:17:51.352Z,93.57
2022-12-03T17:20:18.640Z,78.27
2022-12-03T17:22:45.507Z,94.10
2022-12-03T17:25:12.744Z,91.10
2022-12-03T17:27:44.989Z,87.00
2022-12-03T17:30:13.491Z,114.83
2022-12-03T17:32:40.502Z,114.93
2022-12-03T17:35:08.386Z,114.70
2022-12-03T17:37:36.140Z,117.47
2022-12-03T17:40:05.161Z,130.53
2022-12-03T17:42:32.102Z,127.37
2022-12-03T17:44:58.972Z,122.33
2022-12-03T17:47:25.891Z,112.37
2022-12-03T17:49:53.053Z,118.60
2022-12-03T17:52:20.316Z,103.83
2022-12-03T17:55:10.091Z,86.83
2022-12-03T17:57:34.160Z,92.67
2022-12-03T18:00:01.395Z,103.10
2022-12-03T18:02:28.306Z,116.50
2022-12-03T18:04:55.341Z,108.63
2022-12-03T18:07:22.219Z,91.93
2022-12-03T18:09:49.205Z,87.87
2022-12-03T18:12:16.145Z,97.23
2022-12-03T18:14:43.081Z,97.97
2022-12-03T18:17:09.999Z,88.80
2022-12-03T18:19:36.911Z,93.93
2022-12-03T18:22:03.813Z,100.47
2022-12-03T18:24:30.758Z,83.00
2022-12-03T18:26:57.674Z,89.33
2022-12-03T18:29:24.626Z,86.00
2022-12-03T18:31:51.712Z,91.70
2022-12-03T18:34:18.713Z,92.93
2022-12-03T18:36:46.018Z,91.40
2022-12-03T18:39:24.972Z,84.03
2022-12-03T18:41:53.345Z,84.50
2022-12-03T18:44:20.669Z,90.73
2022-12-03T18:46:55.184Z,86.87
2022-12-03T18:49:22.616Z,84.83
2022-12-03T18:51:53.299Z,108.43
2022-12-03T18:54:25.177Z,99.67
2022-12-03T18:56:52.061Z,94.43
2022-12-03T18:59:18.971Z,87.17
2022-12-03T19:01:45.895Z,91.23
2022-12-03T19:04:12.847Z,87.63
2022-12-03T19:06:39.791Z,87.80
2022-12-03T19:09:06.846Z,80.43
2022-12-03T19:11:34.159Z,90.20
2022-12-03T19:14:02.973Z,88.97
2022-12-03T19:16:30.341Z,90.63
2022-12-03T19:18:57.708Z,87.03
2022-12-03T19:21:26.409Z,93.13
2022-12-03T19:24:22.786Z,88.63
2022-12-03T19:26:43.243Z,87.90
2022-12-03T19:29:10.725Z,91.77
2022-12-03T19:31:37.655Z,89.73
2022-12-03T19:34:04.609Z,88.10
2022-12-03T19:36:32.317Z,88.97
2022-12-03T19:39:00.413Z,94.70
2022-12-03T19:41:30.518Z,90.13
2022-12-03T19:43:58.367Z,90.63
2022-12-03T19:46:31.295Z,85.97
2022-12-03T19:48:58.567Z,88.20
2022-12-03T19:51:34.518Z,78.47
2022-12-03T19:54:04.344Z,82.00
2022-12-03T19:56:31.322Z,84.93
2022-12-03T19:58:58.664Z,84.23
2022-12-03T20:01:29.536Z,95.63
2022-12-03T20:03:59.667Z,90.07
2022-12-03T20:06:30.122Z,106.97
2022-12-03T20:09:00.855Z,100.97
2022-12-03T20:11:31.618Z,91.40
2022-12-03T20:14:01.915Z,104.83
2022-12-03T20:16:30.981Z,110.63
2022-12-03T20:19:04.698Z,91.00
2022-12-03T20:21:34.426Z,83.37
2022-12-03T20:24:01.967Z,77.87
2022-12-03T20:26:29.355Z,86.90
2022-12-03T20:28:57.552Z,104.60
2022-12-03T20:31:28.036Z,96.83
2022-12-03T20:33:58.267Z,88.43
2022-12-03T20:36:26.559Z,89.37
2022-12-03T20:39:00.514Z,83.10
2022-12-03T20:41:28.350Z,78.57
2022-12-03T20:43:55.481Z,94.93
2022-12-03T20:46:29.327Z,80.07
2022-12-03T20:48:56.774Z,77.83
2022-12-03T20:51:28.590Z,83.80
2022-12-03T20:53:57.145Z,79.57
2022-12-03T20:56:34.192Z,78.27
2022-12-03T20:59:05.185Z,69.93
2022-12-03T21:01:32.905Z,96.17
2022-12-03T21:03:59.893Z,85.57
2022-12-03T21:06:30.687Z,83.20
2022-12-03T21:09:00.900Z,75.83
2022-12-03T21:11:30.868Z,83.20
2022-12-03T21:13:59.217Z,85.47
2022-12-03T21:16:59.212Z,76.10
2022-12-03T21:19:18.596Z,77.00
2022-12-03T21:21:45.598Z,78.23
2022-12-03T21:24:13.630Z,88.27
2022-12-03T21:26:41.186Z,95.47
2022-12-03T21:29:08.730Z,119.33
2022-12-03T21:31:37.329Z,97.93
2022-12-03T21:34:05.156Z,96.73
2022-12-03T21:36:32.510Z,95.07
2022-12-03T21:38:59.744Z,105.30
2022-12-03T21:41:26.775Z,96.47
2022-12-03T21:43:53.703Z,93.47
2022-12-03T21:47:10.048Z,88.13
2022-12-03T21:49:07.946Z,102.53
2022-12-03T21:51:34.864Z,92.50
2022-12-03T21:54:01.900Z,99.30
2022-12-03T21:56:31.821Z,85.10
2022-12-03T21:58:58.920Z,95.03
2022-12-03T22:01:25.878Z,93.33
2022-12-03T22:03:53.036Z,84.57
2022-12-03T22:06:20.212Z,98.43
2022-12-03T22:08:47.881Z,98.37
2022-12-03T22:11:24.167Z,91.87
2022-12-03T22:13:51.604Z,87.00
2022-12-03T22:16:20.740Z,113.53
2022-12-03T22:18:48.175Z,98.93
2022-12-03T22:21:18.964Z,105.30
2022-12-03T22:23:46.192Z,87.80
2022-12-03T22:26:17.426Z,90.50
2022-12-03T22:28:47.066Z,89.27
2022-12-03T22:31:16.161Z,85.70
2022-12-03T22:33:43.768Z,73.33
2022-12-03T22:36:19.682Z,77.57
2022-12-03T22:38:47.882Z,89.83
2022-12-03T22:41:15.758Z,83.93
2022-12-03T22:43:43.100Z,85.33
2022-12-03T22:46:12.722Z,80.13
2022-12-03T22:48:41.848Z,78.33
2022-12-03T22:51:25.912Z,71.20
2022-12-03T22:53:58.900Z,66.97
2022-12-03T22:56:27.315Z,72.80
2022-12-03T22:58:54.921Z,73.33
2022-12-03T23:01:33.987Z,74.90
2022-12-03T23:04:02.044Z,64.53
2022-12-03T23:06:30.899Z,64.93
2022-12-03T23:08:59.164Z,66.57
2022-12-03T23:11:27.254Z,69.37
2022-12-03T23:13:54.476Z,74.33
2022-12-03T23:16:30.945Z,67.77
2022-12-03T23:18:59.896Z,61.13
2022-12-03T23:21:30.907Z,66.80
2022-12-03T23:24:03.361Z,64.03
2022-12-03T23:26:30.639Z,58.67
2022-12-03T23:28:57.534Z,68.10
2022-12-03T23:31:33.189Z,63.93
2022-12-03T23:34:01.025Z,69.87
2022-12-03T23:36:30.677Z,63.43
2022-12-03T23:38:57.590Z,77.23
2022-12-03T23:41:25.658Z,60.47
2022-12-03T23:43:52.935Z,55.27
2022-12-03T23:46:24.400Z,72.00
2022-12-03T23:48:51.911Z,58.37
2022-12-03T23:51:24.507Z,65.43
2022-12-03T23:53:53.270Z,61.50
2022-12-03T23:56:24.568Z,64.80
2022-12-03T23:58:51.694Z,60.87
